createdAt,value
2022-09-18T00:09:18.123Z,97.99
2022-09-18T00:19:39.582Z,97.48
2022-09-18T00:30:01.045Z,96.00
2022-09-18T00:40:22.559Z,96.03
2022-09-18T00:50:44.242Z,95.05
2022-09-18T01:01:07.568Z,95.02
2022-09-18T01:11:32.114Z,99.85
2022-09-18T01:22:18.146Z,100.00
2022-09-18T01:32:45.647Z,100.00
2022-09-18T01:43:11.042Z,99.04
2022-09-18T01:53:43.901Z,99.97
2022-09-18T02:04:15.072Z,100.00
2022-09-18T02:14:46.631Z,100.00
2022-09-18T02:25:11.722Z,100.00
2022-09-18T02:35:43.073Z,100.00
2022-09-18T02:46:19.794Z,100.00
2022-09-18T02:56:56.093Z,100.00
2022-09-18T03:07:19.933Z,100.00
2022-09-18T03:17:41.379Z,100.00
2022-09-18T03:28:03.040Z,100.00
2022-09-18T03:38:24.678Z,100.00
2022-09-18T03:48:46.121Z,100.00
2022-09-18T03:59:07.570Z,100.00
2022-09-18T04:09:29.081Z,100.00
2022-09-18T04:19:53.644Z,100.00
2022-09-18T04:30:15.641Z,100.00
2022-09-18T04:40:37.246Z,100.00
2022-09-18T04:50:58.751Z,100.00
2022-09-18T05:01:20.284Z,100.00
2022-09-18T05:11:41.816Z,100.00
2022-09-18T05:22:03.394Z,100.00
2022-09-18T05:32:24.868Z,100.00
2022-09-18T05:42:47.816Z,100.00
2022-09-18T05:53:14.799Z,100.00
2022-09-18T06:03:36.384Z,100.00
2022-09-18T06:13:58.157Z,100.00
2022-09-18T06:24:19.613Z,100.00
2022-09-18T06:34:41.105Z,100.00
2022-09-18T06:45:02.582Z,100.00
2022-09-18T06:55:24.030Z,100.00
2022-09-18T07:05:45.692Z,100.00
2022-09-18T07:16:07.408Z,100.00
2022-09-18T07:26:28.782Z,100.00
2022-09-18T07:36:50.511Z,100.00
2022-09-18T07:47:12.638Z,100.00
2022-09-18T07:57:34.085Z,100.00
2022-09-18T08:07:55.539Z,100.00
2022-09-18T08:18:17.469Z,100.00
2022-09-18T08:28:38.951Z,99.65
2022-09-18T08:39:00.759Z,100.00
2022-09-18T08:49:37.474Z,99.79
2022-09-18T09:00:01.785Z,100.00
2022-09-18T09:10:45.320Z,100.00
2022-09-18T09:21:22.327Z,98.99
2022-09-18T09:31:48.884Z,95.85
2022-09-18T09:42:21.899Z,94.24
2022-09-18T09:52:46.673Z,90.64
2022-09-18T10:03:45.892Z,97.07
2022-09-18T10:14:17.389Z,100.00
2022-09-18T10:24:50.739Z,100.00
2022-09-18T10:35:42.279Z,100.00
2022-09-18T10:46:03.800Z,100.00
2022-09-18T10:56:25.274Z,100.00
2022-09-18T11:06:46.817Z,100.00
2022-09-18T11:17:21.962Z,100.00
2022-09-18T11:27:48.442Z,100.00
2022-09-18T11:38:14.354Z,100.00
2022-09-18T11:48:44.356Z,99.00
2022-09-18T11:59:24.798Z,97.94
2022-09-18T12:10:06.308Z,93.47
2022-09-18T12:20:47.327Z,89.19
2022-09-18T12:31:37.863Z,76.06
2022-09-18T12:42:14.766Z,80.84
2022-09-18T12:53:08.564Z,73.94
2022-09-18T13:03:36.857Z,69.22
2022-09-18T13:14:21.816Z,69.76
2022-09-18T13:24:48.379Z,71.50
2022-09-18T13:35:12.873Z,70.15
2022-09-18T13:45:38.666Z,67.50
2022-09-18T13:56:00.477Z,64.54
2022-09-18T14:06:37.258Z,66.50
2022-09-18T14:17:14.355Z,63.61
2022-09-18T14:27:44.472Z,55.85
2022-09-18T14:38:28.783Z,59.16
2022-09-18T14:48:50.529Z,66.20
2022-09-18T14:59:17.112Z,57.31
2022-09-18T15:09:39.491Z,61.24
2022-09-18T15:20:16.209Z,64.82
2022-09-18T15:30:38.232Z,77.64
2022-09-18T15:41:21.690Z,86.43
2022-09-18T15:51:43.338Z,94.23
2022-09-18T16:02:27.643Z,96.65
2022-09-18T16:12:50.234Z,98.16
2022-09-18T16:23:24.611Z,91.96
2022-09-18T16:33:57.077Z,91.69
2022-09-18T16:44:19.001Z,92.01
2022-09-18T16:54:40.532Z,91.79
2022-09-18T17:05:02.820Z,90.29
2022-09-18T17:15:24.455Z,89.84
2022-09-18T17:25:46.048Z,91.11
2022-09-18T17:36:09.698Z,92.27
2022-09-18T17:46:31.423Z,91.83
2022-09-18T17:56:52.919Z,93.84
2022-09-18T18:07:14.840Z,94.40
2022-09-18T18:17:36.363Z,95.46
2022-09-18T18:27:57.913Z,96.80
2022-09-18T18:38:20.506Z,100.00
2022-09-18T18:48:43.723Z,100.00
2022-09-18T18:59:07.225Z,100.00
2022-09-18T19:09:30.446Z,100.00
2022-09-18T19:19:53.039Z,100.00
2022-09-18T19:30:14.657Z,100.00
2022-09-18T19:40:38.800Z,100.00
2022-09-18T19:51:00.366Z,100.00
2022-09-18T20:01:21.834Z,100.00
2022-09-18T20:11:47.602Z,100.00
2022-09-18T20:22:09.723Z,100.00
2022-09-18T20:32:31.303Z,100.00
2022-09-18T20:42:53.610Z,100.00
2022-09-18T20:53:15.061Z,100.00
2022-09-18T21:03:37.552Z,100.00
2022-09-18T21:14:03.484Z,100.00
2022-09-18T21:24:26.045Z,100.00
2022-09-18T21:34:47.568Z,100.00
2022-09-18T21:45:09.441Z,100.00
2022-09-18T21:55:37.526Z,100.00
2022-09-18T22:06:00.212Z,100.00
2022-09-18T22:16:26.228Z,100.00
2022-09-18T22:26:56.943Z,100.00
2022-09-18T22:37:18.446Z,100.00
2022-09-18T22:47:40.030Z,100.00
2022-09-18T22:58:04.520Z,100.00
2022-09-18T23:08:25.988Z,100.00
2022-09-18T23:18:55.436Z,100.00
2022-09-18T23:29:20.893Z,100.00
2022-09-18T23:39:42.403Z,100.00
2022-09-18T23:50:04.278Z,100.00
